Time;durP1;ratioP1;P1;durP2;ratioP2;P2;SDS_P1;SDS_P2;PMS_P1;PMS_P2;Temp;Humidity;BMP_temperature;BMP_pressure;BME280_temperature;BME280_humidity;BME280_pressure;Samples;Min_cycle;Max_cycle;Signal;HPM_P1;HPM_P2
2023/10/04 00:13:30;;;;;;;9.10;5.17;;;14.80;99.90;;;;;;5931976;23;20229;-87
2023/10/04 00:29:09;;;;;;;8.73;5.50;;;14.90;99.90;;;;;;5862304;24;20200;-87
2023/10/04 00:53:58;;;;;;;7.60;5.00;;;15.10;99.90;;;;;;5677948;24;21149;-87
2023/10/04 01:39:36;;;;;;;4.93;3.30;;;14.20;99.90;;;;;;5578017;25;20221;-84
2023/10/04 01:55:31;;;;;;;5.67;3.70;;;14.20;99.90;;;;;;5627338;25;20473;-85
2023/10/04 01:59:53;;;;;;;4.83;2.80;;;14.10;99.90;;;;;;5579824;25;20539;-87
2023/10/04 02:25:53;;;;;;;4.40;2.73;;;14.10;99.90;;;;;;5492823;25;20352;-86
2023/10/04 02:45:52;;;;;;;3.73;2.43;;;13.70;99.90;;;;;;5902079;23;20238;-87
2023/10/04 03:11:28;;;;;;;4.23;2.20;;;13.20;99.90;;;;;;5902225;24;20220;-88
2023/10/04 03:15:50;;;;;;;5.10;2.13;;;13.10;99.90;;;;;;5795939;24;20228;-87
2023/10/04 03:36:46;;;;;;;4.03;2.13;;;13.00;99.90;;;;;;6054646;23;20446;-87
2023/10/04 03:57:06;;;;;;;4.83;2.10;;;12.80;99.90;;;;;;6021803;23;20176;-88
2023/10/04 04:01:27;;;;;;;4.33;2.20;;;12.60;99.90;;;;;;5992011;23;20448;-89
2023/10/04 04:26:50;;;;;;;5.13;2.80;;;13.10;99.90;;;;;;5843967;24;20484;-86
2023/10/04 04:47:49;;;;;;;8.70;2.70;;;12.70;99.90;;;;;;5844732;24;20533;-86
2023/10/04 04:52:12;;;;;;;5.67;3.00;;;12.80;99.90;;;;;;5807824;24;20352;-86
2023/10/04 05:22:36;;;;;;;4.03;2.47;;;13.40;99.90;;;;;;5684676;24;20712;-85
2023/10/04 05:43:16;;;;;;;5.37;2.30;;;13.70;99.90;;;;;;5792155;24;20174;-85
2023/10/04 06:24:11;;;;;;;5.00;2.70;;;13.90;99.90;;;;;;6058393;23;20174;-85
2023/10/04 06:49:27;;;;;;;5.17;2.50;;;14.10;99.90;;;;;;5956012;23;20185;-85
2023/10/04 07:19:19;;;;;;;5.80;2.97;;;14.80;99.90;;;;;;5713543;24;20603;-84
2023/10/04 07:44:39;;;;;;;3.67;2.10;;;15.10;99.90;;;;;;5626880;24;20544;-85
2023/10/04 08:20:47;;;;;;;5.17;2.50;;;15.40;95.40;;;;;;6026517;23;20749;-84
2023/10/04 08:55:45;;;;;;;4.67;2.67;;;15.20;94.80;;;;;;5754620;24;20542;-83
2023/10/04 09:21:30;;;;;;;4.90;2.53;;;15.00;99.90;;;;;;5784961;24;20533;-82
2023/10/04 09:52:07;;;;;;;6.13;3.03;;;15.80;94.30;;;;;;5799262;24;20302;-84
2023/10/04 10:17:10;;;;;;;4.23;2.33;;;15.30;94.00;;;;;;5474474;25;20612;-83
2023/10/04 10:47:26;;;;;;;5.57;2.90;;;16.00;92.90;;;;;;5460710;25;20667;-84
2023/10/04 11:17:48;;;;;;;6.40;3.03;;;15.50;94.60;;;;;;5409950;25;20571;-84
2023/10/04 11:38:05;;;;;;;8.00;3.43;;;15.30;98.80;;;;;;5521062;24;20869;-85
2023/10/04 11:58:52;;;;;;;4.63;3.30;;;15.80;92.90;;;;;;5570412;24;20596;-86
2023/10/04 12:24:02;;;;;;;6.73;3.57;;;15.40;94.70;;;;;;5614981;25;20611;-83
2023/10/04 12:49:40;;;;;;;6.13;3.90;;;15.60;95.50;;;;;;5832666;24;20525;-82
2023/10/04 13:14:59;;;;;;;5.03;3.70;;;15.30;94.40;;;;;;5837098;24;20323;-83
2023/10/04 13:44:52;;;;;;;3.93;3.10;;;15.70;91.60;;;;;;5917187;23;20564;-84
2023/10/04 14:05:38;;;;;;;5.90;3.10;;;15.50;91.10;;;;;;5682705;24;20374;-85
2023/10/04 14:31:03;;;;;;;5.60;3.30;;;15.60;91.80;;;;;;5829195;24;20195;-88
2023/10/04 15:06:35;;;;;;;4.37;3.60;;;15.00;97.10;;;;;;6000709;23;20192;-86
2023/10/04 15:37:06;;;;;;;4.60;3.00;;;14.90;98.40;;;;;;5861600;24;20299;-87
2023/10/04 16:02:19;;;;;;;5.83;3.60;;;14.60;99.90;;;;;;5763194;24;20627;-85
2023/10/04 16:53:05;;;;;;;6.70;3.67;;;14.30;99.90;;;;;;5703466;24;20202;-86
2023/10/04 17:23:41;;;;;;;7.40;4.43;;;13.90;99.90;;;;;;5774608;24;20756;-82
2023/10/04 17:48:49;;;;;;;9.30;4.77;;;13.60;99.90;;;;;;5777433;24;20191;-86
2023/10/04 18:14:05;;;;;;;7.10;4.83;;;13.40;99.90;;;;;;5701387;24;20209;-86
2023/10/04 18:39:32;;;;;;;8.43;5.40;;;13.00;99.90;;;;;;5658231;24;20303;-83
2023/10/04 18:59:50;;;;;;;11.70;5.73;;;12.90;99.90;;;;;;5717651;24;20177;-83
2023/10/04 19:25:21;;;;;;;9.17;5.33;;;13.10;99.90;;;;;;5825569;24;20197;-87
2023/10/04 19:55:37;;;;;;;9.63;6.20;;;12.60;99.90;;;;;;5824221;24;20254;-84
2023/10/04 20:20:30;;;;;;;8.70;5.20;;;12.30;99.90;;;;;;5722079;24;20179;-88
2023/10/04 20:41:30;;;;;;;7.90;5.40;;;12.10;99.90;;;;;;5738961;24;20255;-86
2023/10/04 21:06:49;;;;;;;8.70;6.53;;;12.10;99.90;;;;;;5848533;24;20250;-87
2023/10/04 21:42:11;;;;;;;9.27;6.67;;;11.60;99.90;;;;;;5892101;23;20219;-84
2023/10/04 22:17:33;;;;;;;10.50;7.77;;;11.30;99.90;;;;;;5885803;24;20524;-85
2023/10/04 22:43:12;;;;;;;12.57;7.33;;;11.60;99.90;;;;;;5877468;23;20182;-81
2023/10/04 23:23:16;;;;;;;13.50;8.17;;;10.90;99.90;;;;;;5679006;24;20464;-86
2023/10/04 23:49:09;;;;;;;10.63;8.70;;;10.60;99.90;;;;;;5708717;24;20188;-83
